Time;durP1;ratioP1;P1;durP2;ratioP2;P2;SDS_P1;SDS_P2;PMS_P1;PMS_P2;Temp;Humidity;BMP_temperature;BMP_pressure;BME280_temperature;BME280_humidity;BME280_pressure;Samples;Min_cycle;Max_cycle;Signal;HPM_P1;HPM_P2
2023/10/10 00:01:38;;;;;;;5.43;4.45;;;;;;;;;;5018165;28;20224;-68
2023/10/10 00:04:05;;;;;;;4.40;3.90;;;;;;;;;;5027854;28;20247;-69
2023/10/10 00:06:38;;;;;;;5.03;4.43;;;;;;;;;;5021277;28;20222;-68
2023/10/10 00:09:09;;;;;;;4.68;4.15;;;;;;;;;;5016783;28;20201;-69
2023/10/10 00:11:37;;;;;;;6.10;4.60;;;;;;;;;;5021545;28;20216;-68
2023/10/10 00:14:06;;;;;;;4.82;4.32;;;;;;;;;;5020481;28;20278;-68
2023/10/10 00:16:37;;;;;;;5.38;4.30;;;;;;;;;;5021152;28;20212;-69
2023/10/10 00:19:17;;;;;;;5.57;3.90;;;;;;;;;;5018003;28;20214;-68
2023/10/10 00:21:47;;;;;;;4.60;4.00;;;;;;;;;;5015609;28;20291;-68
2023/10/10 00:24:20;;;;;;;6.57;4.35;;;;;;;;;;5022426;28;20235;-68
2023/10/10 00:26:48;;;;;;;5.60;4.15;;;;;;;;;;5015996;28;20269;-68
2023/10/10 00:29:18;;;;;;;4.88;3.95;;;;;;;;;;5016087;28;20213;-68
2023/10/10 00:31:54;;;;;;;5.10;4.20;;;;;;;;;;5020826;28;20243;-69
2023/10/10 00:34:22;;;;;;;4.97;4.10;;;;;;;;;;5020597;28;20306;-68
2023/10/10 00:36:51;;;;;;;5.85;3.90;;;;;;;;;;5019863;28;20208;-69
2023/10/10 00:39:30;;;;;;;4.18;3.75;;;;;;;;;;5023119;28;20303;-69
2023/10/10 00:42:04;;;;;;;6.18;4.30;;;;;;;;;;5021972;28;20246;-69
2023/10/10 00:44:33;;;;;;;5.60;3.63;;;;;;;;;;5019620;28;20322;-68
2023/10/10 00:47:03;;;;;;;5.88;4.25;;;;;;;;;;5018208;28;20200;-69
2023/10/10 00:49:34;;;;;;;7.45;4.50;;;;;;;;;;5021203;28;20270;-69
2023/10/10 00:52:06;;;;;;;6.57;4.30;;;;;;;;;;5019173;28;20254;-69
2023/10/10 00:54:40;;;;;;;5.07;4.53;;;;;;;;;;5020123;28;20303;-68
2023/10/10 00:57:08;;;;;;;7.15;4.18;;;;;;;;;;5021026;28;20201;-69
2023/10/10 00:59:42;;;;;;;4.70;4.22;;;;;;;;;;5015247;28;20230;-69
2023/10/10 01:02:10;;;;;;;4.60;3.80;;;;;;;;;;5016797;28;20211;-69
2023/10/10 01:04:39;;;;;;;6.97;3.97;;;;;;;;;;5022921;28;20504;-69
2023/10/10 01:07:08;;;;;;;4.15;3.75;;;;;;;;;;5021983;28;20202;-69
2023/10/10 01:09:39;;;;;;;4.28;3.67;;;;;;;;;;5020086;28;20212;-69
2023/10/10 01:12:09;;;;;;;5.82;4.10;;;;;;;;;;5021185;28;20273;-69
2023/10/10 01:14:38;;;;;;;6.28;4.57;;;;;;;;;;5022567;28;20225;-65
2023/10/10 01:17:06;;;;;;;7.38;4.38;;;;;;;;;;5024711;28;20250;-64
2023/10/10 01:19:36;;;;;;;5.45;4.00;;;;;;;;;;5016955;28;20204;-65
2023/10/10 01:22:12;;;;;;;5.22;4.10;;;;;;;;;;5022503;28;22020;-65
2023/10/10 01:24:40;;;;;;;7.65;4.03;;;;;;;;;;5016451;28;20234;-65
2023/10/10 01:27:21;;;;;;;5.20;4.00;;;;;;;;;;5018851;28;20205;-65
2023/10/10 01:29:51;;;;;;;5.78;4.25;;;;;;;;;;5019305;28;20246;-65
2023/10/10 01:32:18;;;;;;;4.00;3.58;;;;;;;;;;5018983;28;20206;-64
2023/10/10 01:34:45;;;;;;;4.90;4.40;;;;;;;;;;5020009;28;20228;-65
2023/10/10 01:37:22;;;;;;;5.47;3.97;;;;;;;;;;5020690;28;20196;-65
2023/10/10 01:40:00;;;;;;;5.65;4.50;;;;;;;;;;5019474;28;20196;-65
2023/10/10 01:42:37;;;;;;;6.97;4.18;;;;;;;;;;5025352;28;20208;-65
2023/10/10 01:45:07;;;;;;;6.97;4.35;;;;;;;;;;5020861;28;20200;-64
2023/10/10 01:47:35;;;;;;;4.57;3.78;;;;;;;;;;5020486;28;20204;-65
2023/10/10 01:50:07;;;;;;;6.53;3.55;;;;;;;;;;5021027;28;20229;-65
2023/10/10 01:52:37;;;;;;;4.85;3.60;;;;;;;;;;5020676;28;20201;-66
2023/10/10 01:55:05;;;;;;;6.82;3.97;;;;;;;;;;5020859;28;20215;-65
2023/10/10 01:57:32;;;;;;;5.68;4.28;;;;;;;;;;5021404;28;20213;-65
2023/10/10 02:00:19;;;;;;;5.05;4.05;;;;;;;;;;5015105;28;20230;-66
2023/10/10 02:02:49;;;;;;;5.60;3.97;;;;;;;;;;5014598;28;20211;-64
2023/10/10 02:05:29;;;;;;;4.38;3.97;;;;;;;;;;5020631;28;20209;-65
2023/10/10 02:07:57;;;;;;;4.93;4.18;;;;;;;;;;5033084;28;20203;-64
2023/10/10 02:10:26;;;;;;;4.80;4.28;;;;;;;;;;5015350;28;20201;-65
2023/10/10 02:12:54;;;;;;;5.30;4.50;;;;;;;;;;5021794;28;20207;-65
2023/10/10 02:15:32;;;;;;;5.90;4.22;;;;;;;;;;5027758;28;20299;-65
2023/10/10 02:18:04;;;;;;;4.85;3.83;;;;;;;;;;5024732;28;20239;-66
2023/10/10 02:20:49;;;;;;;4.75;3.90;;;;;;;;;;5022518;28;20205;-65
2023/10/10 02:23:24;;;;;;;4.82;3.75;;;;;;;;;;5028899;28;20231;-65
2023/10/10 02:25:53;;;;;;;4.18;3.78;;;;;;;;;;5025063;28;20211;-65
2023/10/10 02:28:43;;;;;;;5.05;3.97;;;;;;;;;;5022922;28;20211;-65
2023/10/10 02:31:12;;;;;;;4.47;3.70;;;;;;;;;;5025017;28;20223;-65
2023/10/10 02:33:48;;;;;;;4.75;3.88;;;;;;;;;;5020655;28;20223;-65
2023/10/10 02:36:15;;;;;;;6.43;4.00;;;;;;;;;;5024035;28;20227;-65
2023/10/10 02:38:55;;;;;;;5.15;3.97;;;;;;;;;;5032110;28;20217;-65
2023/10/10 02:41:37;;;;;;;4.80;4.15;;;;;;;;;;5026428;28;20237;-64
2023/10/10 02:44:09;;;;;;;5.43;4.22;;;;;;;;;;5019367;28;20215;-65
2023/10/10 02:46:38;;;;;;;5.90;4.20;;;;;;;;;;5030641;28;20204;-65
2023/10/10 02:49:13;;;;;;;4.82;3.97;;;;;;;;;;5025555;28;20325;-65
2023/10/10 02:51:45;;;;;;;5.20;4.50;;;;;;;;;;5018050;28;20220;-65
2023/10/10 02:54:31;;;;;;;4.63;3.90;;;;;;;;;;5016491;28;20228;-65
2023/10/10 02:57:26;;;;;;;5.90;4.32;;;;;;;;;;5022596;28;20197;-65
2023/10/10 02:59:50;;;;;;;6.28;4.22;;;;;;;;;;5022211;28;20207;-65
2023/10/10 03:02:19;;;;;;;5.50;4.60;;;;;;;;;;5023284;28;20278;-65
2023/10/10 03:05:06;;;;;;;5.85;4.50;;;;;;;;;;5028076;28;20201;-65
2023/10/10 03:07:33;;;;;;;5.60;4.05;;;;;;;;;;5028052;28;20208;-65
2023/10/10 03:10:22;;;;;;;5.57;4.40;;;;;;;;;;5019568;28;20204;-65
2023/10/10 03:12:49;;;;;;;4.85;4.03;;;;;;;;;;5019922;28;20207;-65
2023/10/10 03:15:27;;;;;;;6.68;4.10;;;;;;;;;;5021628;28;20228;-65
2023/10/10 03:18:14;;;;;;;5.78;4.50;;;;;;;;;;5026683;28;20216;-65
2023/10/10 03:20:51;;;;;;;4.97;4.53;;;;;;;;;;5020005;28;20270;-65
2023/10/10 03:23:32;;;;;;;6.53;4.13;;;;;;;;;;5030355;28;20207;-65
2023/10/10 03:26:06;;;;;;;5.70;4.20;;;;;;;;;;5031100;28;20196;-65
2023/10/10 03:28:34;;;;;;;4.97;4.47;;;;;;;;;;5023406;28;20208;-65
2023/10/10 03:31:07;;;;;;;8.13;4.97;;;;;;;;;;5021221;28;20228;-65
2023/10/10 03:33:37;;;;;;;6.85;4.68;;;;;;;;;;5024195;28;20216;-69
2023/10/10 03:36:23;;;;;;;6.60;5.03;;;;;;;;;;5027472;28;20205;-69
2023/10/10 05:23:47;;;;;;;5.00;4.13;;;;;;;;;;5019624;28;20214;-65
2023/10/10 05:26:15;;;;;;;7.43;4.53;;;;;;;;;;5017082;28;20223;-65
2023/10/10 05:28:45;;;;;;;4.60;4.05;;;;;;;;;;5023662;28;20204;-65
2023/10/10 05:31:18;;;;;;;4.38;3.90;;;;;;;;;;5017008;28;20208;-65
2023/10/10 05:33:47;;;;;;;4.30;3.90;;;;;;;;;;5011054;28;20217;-65
2023/10/10 05:36:18;;;;;;;5.28;4.28;;;;;;;;;;5014715;28;20215;-65
2023/10/10 05:38:46;;;;;;;4.70;4.20;;;;;;;;;;5021226;28;20238;-65
2023/10/10 05:41:13;;;;;;;4.28;3.72;;;;;;;;;;5020000;28;20200;-65
2023/10/10 05:43:40;;;;;;;4.77;3.93;;;;;;;;;;5019861;28;20200;-65
2023/10/10 05:46:08;;;;;;;5.28;4.60;;;;;;;;;;5017589;28;20208;-65
2023/10/10 05:48:36;;;;;;;5.30;4.57;;;;;;;;;;5017761;28;20239;-65
2023/10/10 05:51:04;;;;;;;6.72;4.50;;;;;;;;;;5023186;28;20212;-65
2023/10/10 05:53:33;;;;;;;5.35;4.85;;;;;;;;;;5024671;28;20208;-65
2023/10/10 05:56:12;;;;;;;6.75;4.40;;;;;;;;;;5021325;28;20207;-65
2023/10/10 05:58:42;;;;;;;6.50;4.55;;;;;;;;;;5052085;28;20264;-65
2023/10/10 06:01:12;;;;;;;5.80;5.03;;;;;;;;;;5020563;28;20196;-65
2023/10/10 06:03:39;;;;;;;5.67;5.10;;;;;;;;;;5022119;28;20308;-67
2023/10/10 06:06:06;;;;;;;6.32;4.70;;;;;;;;;;5024132;28;20208;-65
2023/10/10 06:08:36;;;;;;;7.57;5.10;;;;;;;;;;5024203;28;20217;-65
2023/10/10 06:11:06;;;;;;;6.88;5.50;;;;;;;;;;5021511;28;20216;-65
2023/10/10 06:13:39;;;;;;;6.60;4.85;;;;;;;;;;5024095;28;20687;-65
2023/10/10 06:16:09;;;;;;;5.50;4.90;;;;;;;;;;5026715;28;20200;-65
2023/10/10 06:18:36;;;;;;;5.88;4.90;;;;;;;;;;5021175;28;20209;-65
2023/10/10 06:21:07;;;;;;;6.72;4.70;;;;;;;;;;5019538;28;20216;-65
2023/10/10 06:23:36;;;;;;;8.40;4.97;;;;;;;;;;5023109;28;20205;-65
2023/10/10 06:26:03;;;;;;;6.57;5.00;;;;;;;;;;5017936;28;20236;-65
2023/10/10 06:28:35;;;;;;;5.80;4.37;;;;;;;;;;5020395;28;20295;-65
2023/10/10 06:31:03;;;;;;;5.10;4.60;;;;;;;;;;5017884;28;20216;-65
2023/10/10 06:33:30;;;;;;;4.80;4.20;;;;;;;;;;5023911;28;20234;-65
2023/10/10 06:36:30;;;;;;;9.32;4.80;;;;;;;;;;5021750;28;20216;-65
2023/10/10 06:39:18;;;;;;;6.07;4.90;;;;;;;;;;5023873;28;20236;-65
2023/10/10 06:41:58;;;;;;;7.27;4.70;;;;;;;;;;5017658;28;20208;-66
2023/10/10 06:44:35;;;;;;;5.80;4.93;;;;;;;;;;5022119;28;20263;-66
2023/10/10 06:47:08;;;;;;;5.80;4.50;;;;;;;;;;5016426;28;20203;-65
2023/10/10 06:49:44;;;;;;;5.70;5.07;;;;;;;;;;5023610;28;20323;-65
2023/10/10 06:52:18;;;;;;;5.20;4.68;;;;;;;;;;5024807;28;20298;-65
2023/10/10 06:54:53;;;;;;;7.07;5.05;;;;;;;;;;5020283;28;20405;-65
2023/10/10 06:57:21;;;;;;;7.80;5.20;;;;;;;;;;5021745;28;20208;-65
2023/10/10 06:59:50;;;;;;;7.57;5.40;;;;;;;;;;5015079;28;20200;-66
2023/10/10 07:02:21;;;;;;;6.00;5.05;;;;;;;;;;5020664;28;20212;-65
2023/10/10 07:04:53;;;;;;;5.93;5.32;;;;;;;;;;5019726;28;20200;-65
2023/10/10 07:07:21;;;;;;;5.13;4.63;;;;;;;;;;5018663;28;20216;-65
2023/10/10 07:09:57;;;;;;;6.00;5.05;;;;;;;;;;5020433;28;20204;-64
2023/10/10 07:12:28;;;;;;;7.80;5.05;;;;;;;;;;5023113;28;20266;-65
2023/10/10 07:14:56;;;;;;;6.82;5.25;;;;;;;;;;5022801;28;20221;-68
2023/10/10 07:17:27;;;;;;;6.05;5.28;;;;;;;;;;5019825;28;20312;-68
2023/10/10 07:22:38;;;;;;;5.20;4.33;;;;;;;;;;5013886;28;20205;-68
2023/10/10 07:25:07;;;;;;;6.20;5.50;;;;;;;;;;5011730;28;20200;-68
2023/10/10 07:27:35;;;;;;;7.18;5.22;;;;;;;;;;5013945;28;20208;-68
2023/10/10 07:30:16;;;;;;;6.18;5.15;;;;;;;;;;5010600;28;20261;-69
2023/10/10 07:32:43;;;;;;;5.72;4.90;;;;;;;;;;5016946;28;20207;-69
2023/10/10 07:35:15;;;;;;;7.65;5.50;;;;;;;;;;5013939;28;20228;-69
2023/10/10 07:37:43;;;;;;;6.32;5.38;;;;;;;;;;5015120;28;20204;-69
2023/10/10 07:40:21;;;;;;;7.95;5.68;;;;;;;;;;5014651;28;20258;-69
2023/10/10 07:42:58;;;;;;;6.95;5.15;;;;;;;;;;5019116;28;20232;-68
2023/10/10 07:45:28;;;;;;;6.75;6.05;;;;;;;;;;5020351;28;20267;-68
2023/10/10 07:50:48;;;;;;;9.98;7.50;;;;;;;;;;5019175;28;20219;-68
2023/10/10 07:53:17;;;;;;;10.38;7.25;;;;;;;;;;5013392;28;20196;-68
2023/10/10 07:55:53;;;;;;;9.70;7.57;;;;;;;;;;5013060;28;20248;-68
2023/10/10 07:58:23;;;;;;;8.88;6.53;;;;;;;;;;5018128;28;20214;-68
2023/10/10 08:00:50;;;;;;;10.32;6.43;;;;;;;;;;5011827;28;20204;-68
2023/10/10 08:03:20;;;;;;;8.35;6.30;;;;;;;;;;5023808;28;20213;-68
2023/10/10 08:05:48;;;;;;;8.40;6.20;;;;;;;;;;5025709;28;20204;-68
2023/10/10 08:08:15;;;;;;;8.23;6.38;;;;;;;;;;5013452;28;20201;-68
2023/10/10 08:10:44;;;;;;;8.75;6.40;;;;;;;;;;5013577;28;20294;-68
2023/10/10 08:13:14;;;;;;;9.27;5.75;;;;;;;;;;5016388;28;20204;-68
2023/10/10 08:15:50;;;;;;;9.73;6.32;;;;;;;;;;5015371;28;20613;-68
2023/10/10 08:18:39;;;;;;;8.52;5.90;;;;;;;;;;5012213;28;20213;-68
2023/10/10 08:21:10;;;;;;;10.25;6.18;;;;;;;;;;5018411;28;20215;-68
2023/10/10 08:23:42;;;;;;;9.13;6.18;;;;;;;;;;5018559;28;20205;-65
2023/10/10 08:26:10;;;;;;;10.27;6.65;;;;;;;;;;5017485;28;20297;-65
2023/10/10 08:28:38;;;;;;;9.07;5.55;;;;;;;;;;5019069;28;20201;-64
2023/10/10 08:31:05;;;;;;;7.95;6.18;;;;;;;;;;5021545;28;20201;-64
2023/10/10 08:33:32;;;;;;;9.55;6.03;;;;;;;;;;5018875;28;20212;-64
2023/10/10 08:36:00;;;;;;;10.07;5.90;;;;;;;;;;5027681;28;20269;-64
2023/10/10 08:38:27;;;;;;;6.05;5.35;;;;;;;;;;5015973;28;20251;-64
2023/10/10 08:40:57;;;;;;;6.40;5.28;;;;;;;;;;5016487;28;20192;-64
2023/10/10 08:43:28;;;;;;;6.35;5.30;;;;;;;;;;5017462;28;20208;-64
2023/10/10 08:45:57;;;;;;;8.52;5.82;;;;;;;;;;5016594;28;20200;-64
2023/10/10 08:48:26;;;;;;;10.38;6.05;;;;;;;;;;5023995;28;20196;-64
2023/10/10 08:50:54;;;;;;;7.22;5.35;;;;;;;;;;5014329;28;20207;-64
2023/10/10 08:53:24;;;;;;;9.85;6.38;;;;;;;;;;5020661;28;20213;-64
2023/10/10 08:55:56;;;;;;;13.85;6.20;;;;;;;;;;5014241;28;20239;-65
2023/10/10 08:58:24;;;;;;;8.18;6.82;;;;;;;;;;5017628;28;20208;-64
2023/10/10 09:00:51;;;;;;;10.48;6.65;;;;;;;;;;5020155;28;20210;-64
2023/10/10 09:03:20;;;;;;;10.15;6.88;;;;;;;;;;5022907;28;20209;-64
2023/10/10 09:05:47;;;;;;;9.48;5.88;;;;;;;;;;5018141;28;20291;-64
2023/10/10 09:08:15;;;;;;;9.25;6.32;;;;;;;;;;5018235;28;20209;-63
2023/10/10 09:10:46;;;;;;;8.38;6.10;;;;;;;;;;5016342;28;20250;-63
2023/10/10 09:13:13;;;;;;;9.10;6.15;;;;;;;;;;5022518;28;20231;-64
2023/10/10 09:15:54;;;;;;;9.85;6.07;;;;;;;;;;5019197;28;21517;-64
2023/10/10 09:18:23;;;;;;;10.85;6.20;;;;;;;;;;5022249;28;20250;-64
2023/10/10 09:20:50;;;;;;;10.05;6.45;;;;;;;;;;5019164;28;20208;-64
2023/10/10 09:23:22;;;;;;;7.80;6.00;;;;;;;;;;5020774;28;20200;-63
2023/10/10 09:25:57;;;;;;;8.43;5.88;;;;;;;;;;5018424;28;20208;-64
2023/10/10 09:28:30;;;;;;;9.00;5.90;;;;;;;;;;5017301;28;20257;-63
2023/10/10 09:31:03;;;;;;;7.80;5.97;;;;;;;;;;5024178;28;20291;-64
2023/10/10 09:33:34;;;;;;;10.07;5.80;;;;;;;;;;5017530;28;20204;-67
2023/10/10 09:36:09;;;;;;;9.60;5.60;;;;;;;;;;5018779;28;20233;-67
2023/10/10 09:38:45;;;;;;;9.13;5.45;;;;;;;;;;5015848;28;20299;-67
2023/10/10 09:41:26;;;;;;;7.28;5.78;;;;;;;;;;5016759;28;20214;-67
2023/10/10 09:44:19;;;;;;;11.18;5.97;;;;;;;;;;5022909;28;20203;-67
2023/10/10 09:46:59;;;;;;;8.57;4.93;;;;;;;;;;5009948;28;20258;-67
2023/10/10 09:49:35;;;;;;;7.57;5.43;;;;;;;;;;5019384;28;20297;-67
2023/10/10 09:54:48;;;;;;;8.75;4.93;;;;;;;;;;5017049;28;20199;-67
2023/10/10 09:57:17;;;;;;;7.35;5.40;;;;;;;;;;5015391;28;20211;-67
2023/10/10 09:59:52;;;;;;;9.23;5.40;;;;;;;;;;5014261;28;20200;-67
2023/10/10 10:02:40;;;;;;;8.63;4.85;;;;;;;;;;5019648;28;20291;-67
2023/10/10 10:05:13;;;;;;;8.07;5.25;;;;;;;;;;5015864;28;20592;-68
2023/10/10 10:07:56;;;;;;;8.23;5.00;;;;;;;;;;5011433;28;20236;-67
2023/10/10 10:10:35;;;;;;;8.20;5.13;;;;;;;;;;5016143;28;20249;-66
2023/10/10 10:13:19;;;;;;;7.43;5.35;;;;;;;;;;5018885;28;20208;-67
2023/10/10 10:16:08;;;;;;;10.45;5.32;;;;;;;;;;5017301;28;20332;-67
2023/10/10 10:18:45;;;;;;;10.15;5.20;;;;;;;;;;5020914;28;20217;-67
2023/10/10 10:21:18;;;;;;;11.05;5.40;;;;;;;;;;5017758;28;20212;-67
2023/10/10 10:23:56;;;;;;;10.48;5.47;;;;;;;;;;5015897;28;20204;-67
2023/10/10 10:26:31;;;;;;;9.18;5.20;;;;;;;;;;5017192;28;20204;-67
2023/10/10 10:29:07;;;;;;;8.73;5.50;;;;;;;;;;5025467;28;20231;-67
2023/10/10 10:31:37;;;;;;;7.55;5.53;;;;;;;;;;5018663;28;20228;-67
2023/10/10 10:34:08;;;;;;;9.15;5.80;;;;;;;;;;5021605;28;20193;-67
2023/10/10 10:36:43;;;;;;;11.93;5.88;;;;;;;;;;5015843;28;20226;-68
2023/10/10 10:39:25;;;;;;;9.18;5.70;;;;;;;;;;5022663;28;20211;-67
2023/10/10 10:41:53;;;;;;;10.18;5.70;;;;;;;;;;5018453;28;20235;-67
2023/10/10 10:44:54;;;;;;;9.50;5.60;;;;;;;;;;5020500;28;20196;-70
2023/10/10 10:47:45;;;;;;;9.48;5.90;;;;;;;;;;5014848;28;20224;-68
2023/10/10 10:50:29;;;;;;;7.35;4.93;;;;;;;;;;5017815;28;20236;-67
2023/10/10 10:53:05;;;;;;;11.38;6.00;;;;;;;;;;5015922;28;20200;-67
2023/10/10 10:55:39;;;;;;;11.50;5.78;;;;;;;;;;5021876;28;20219;-67
2023/10/10 10:58:06;;;;;;;10.02;5.65;;;;;;;;;;5022761;28;20275;-67
2023/10/10 11:03:24;;;;;;;9.98;5.72;;;;;;;;;;5016943;28;20208;-67
2023/10/10 11:05:55;;;;;;;11.60;5.78;;;;;;;;;;5018389;28;20204;-67
2023/10/10 11:08:51;;;;;;;11.85;6.65;;;;;;;;;;5018706;28;20229;-66
2023/10/10 11:11:25;;;;;;;9.77;5.78;;;;;;;;;;5024052;28;20204;-66
2023/10/10 11:13:54;;;;;;;8.90;6.03;;;;;;;;;;5018319;28;20209;-67
2023/10/10 11:16:23;;;;;;;10.98;6.20;;;;;;;;;;5017598;28;20228;-66
2023/10/10 11:18:57;;;;;;;12.05;6.22;;;;;;;;;;5026288;28;20205;-63
2023/10/10 11:21:27;;;;;;;11.52;6.22;;;;;;;;;;5019531;28;20295;-63
2023/10/10 11:23:57;;;;;;;9.32;6.07;;;;;;;;;;5025637;28;20213;-63
2023/10/10 11:26:24;;;;;;;11.35;6.78;;;;;;;;;;5023939;28;20228;-63
2023/10/10 11:28:51;;;;;;;9.32;5.82;;;;;;;;;;5026316;28;20204;-63
2023/10/10 11:31:23;;;;;;;10.15;5.85;;;;;;;;;;5019649;28;20208;-63
2023/10/10 11:33:55;;;;;;;10.57;6.25;;;;;;;;;;5020706;28;20209;-62
2023/10/10 11:36:37;;;;;;;11.20;5.65;;;;;;;;;;5027816;28;20220;-62
2023/10/10 11:39:17;;;;;;;12.48;5.90;;;;;;;;;;5020897;28;20196;-64
2023/10/10 11:41:46;;;;;;;8.77;5.65;;;;;;;;;;5024893;28;20207;-62
2023/10/10 11:44:18;;;;;;;11.80;6.85;;;;;;;;;;5022701;28;20207;-63
2023/10/10 11:46:46;;;;;;;11.25;6.03;;;;;;;;;;5025257;28;20192;-62
2023/10/10 11:49:16;;;;;;;10.25;5.80;;;;;;;;;;5022243;28;20240;-62
2023/10/10 11:51:43;;;;;;;10.13;6.07;;;;;;;;;;5023049;28;20208;-63
2023/10/10 11:54:11;;;;;;;8.80;6.03;;;;;;;;;;5023246;28;20197;-66
2023/10/10 11:56:41;;;;;;;17.10;6.38;;;;;;;;;;5017371;28;20661;-66
2023/10/10 11:59:11;;;;;;;9.73;6.07;;;;;;;;;;5015973;28;20212;-66
2023/10/10 12:02:07;;;;;;;8.63;6.10;;;;;;;;;;5015228;28;20201;-66
2023/10/10 12:04:37;;;;;;;15.00;6.30;;;;;;;;;;5016153;28;20239;-66
2023/10/10 12:07:05;;;;;;;13.40;5.85;;;;;;;;;;5017797;28;20291;-66
2023/10/10 12:09:34;;;;;;;9.30;6.20;;;;;;;;;;5015054;28;20212;-66
2023/10/10 12:12:03;;;;;;;10.05;5.72;;;;;;;;;;5019702;28;20196;-66
2023/10/10 12:14:30;;;;;;;10.45;6.68;;;;;;;;;;5019689;28;20311;-66
2023/10/10 12:17:05;;;;;;;11.18;6.22;;;;;;;;;;5022672;28;20228;-66
2023/10/10 12:19:36;;;;;;;8.05;6.47;;;;;;;;;;5021185;28;20212;-66
2023/10/10 12:22:07;;;;;;;10.15;6.00;;;;;;;;;;5016191;28;20263;-66
2023/10/10 12:24:36;;;;;;;13.85;6.00;;;;;;;;;;5017235;28;20208;-66
2023/10/10 12:27:07;;;;;;;9.60;5.85;;;;;;;;;;5018595;28;20272;-66
2023/10/10 12:29:39;;;;;;;12.32;6.03;;;;;;;;;;5015190;28;20206;-66
2023/10/10 12:32:15;;;;;;;8.88;5.43;;;;;;;;;;5013063;28;20268;-66
2023/10/10 12:34:42;;;;;;;11.60;6.18;;;;;;;;;;5020727;28;20223;-66
2023/10/10 12:37:09;;;;;;;9.50;6.07;;;;;;;;;;5022841;28;20228;-66
2023/10/10 12:39:38;;;;;;;8.88;6.03;;;;;;;;;;5017620;28;20200;-66
2023/10/10 12:42:07;;;;;;;9.90;6.25;;;;;;;;;;5015198;28;20219;-66
2023/10/10 12:44:34;;;;;;;11.75;6.47;;;;;;;;;;5016364;28;20208;-66
2023/10/10 12:47:06;;;;;;;12.23;5.93;;;;;;;;;;5016122;28;20204;-66
2023/10/10 12:49:36;;;;;;;9.65;6.32;;;;;;;;;;5017341;28;20235;-66
2023/10/10 12:52:11;;;;;;;9.95;6.13;;;;;;;;;;5018588;28;20196;-66
2023/10/10 12:54:41;;;;;;;8.48;5.97;;;;;;;;;;5018320;28;20268;-66
2023/10/10 12:57:13;;;;;;;10.30;5.68;;;;;;;;;;5016189;28;20217;-66
2023/10/10 12:59:46;;;;;;;13.95;6.03;;;;;;;;;;5014153;28;20215;-66
2023/10/10 13:02:15;;;;;;;9.50;6.25;;;;;;;;;;5016801;28;20406;-65
2023/10/10 13:04:46;;;;;;;12.02;5.90;;;;;;;;;;5019309;28;20200;-63
2023/10/10 13:07:15;;;;;;;11.95;6.15;;;;;;;;;;5013523;28;20228;-62
2023/10/10 13:09:46;;;;;;;10.98;5.60;;;;;;;;;;5018984;28;20213;-62
2023/10/10 13:12:26;;;;;;;10.70;5.60;;;;;;;;;;5015592;28;20208;-62
2023/10/10 13:15:05;;;;;;;16.50;6.05;;;;;;;;;;5017557;28;20204;-62
2023/10/10 13:17:49;;;;;;;11.82;5.47;;;;;;;;;;5018080;28;20208;-62
2023/10/10 13:20:17;;;;;;;8.48;5.68;;;;;;;;;;5015203;28;20201;-62
2023/10/10 13:22:48;;;;;;;9.02;5.80;;;;;;;;;;5020946;28;20266;-62
2023/10/10 13:25:16;;;;;;;11.25;6.05;;;;;;;;;;5024857;28;20228;-62
2023/10/10 13:27:45;;;;;;;8.40;5.65;;;;;;;;;;5021497;28;20200;-62
2023/10/10 13:30:13;;;;;;;11.00;6.25;;;;;;;;;;5021191;28;20200;-62
2023/10/10 13:32:41;;;;;;;18.08;6.18;;;;;;;;;;5017215;28;20203;-62
2023/10/10 13:35:09;;;;;;;8.20;5.03;;;;;;;;;;5011660;28;20215;-62
2023/10/10 13:37:41;;;;;;;8.80;5.00;;;;;;;;;;5015585;28;20225;-62
2023/10/10 13:40:08;;;;;;;9.90;5.70;;;;;;;;;;5019543;28;20291;-62
2023/10/10 13:42:40;;;;;;;9.82;5.07;;;;;;;;;;5021328;28;20288;-63
2023/10/10 13:45:12;;;;;;;8.07;5.15;;;;;;;;;;5023128;28;20204;-63
2023/10/10 13:47:40;;;;;;;10.75;5.50;;;;;;;;;;5017102;28;20205;-62
2023/10/10 13:50:28;;;;;;;8.43;5.25;;;;;;;;;;5020129;28;20327;-62
2023/10/10 13:52:55;;;;;;;12.85;5.35;;;;;;;;;;5017776;28;20208;-63
2023/10/10 13:55:23;;;;;;;14.52;5.40;;;;;;;;;;5012984;28;20204;-62
2023/10/10 13:57:53;;;;;;;8.18;5.40;;;;;;;;;;5016607;28;20229;-62
2023/10/10 14:00:29;;;;;;;8.48;5.47;;;;;;;;;;5021617;28;20231;-62
2023/10/10 14:02:59;;;;;;;8.07;5.40;;;;;;;;;;5010657;28;20201;-62
2023/10/10 14:05:29;;;;;;;8.57;5.60;;;;;;;;;;5019820;28;20212;-62
2023/10/10 14:07:56;;;;;;;11.48;5.93;;;;;;;;;;5018659;28;20201;-64
2023/10/10 14:10:23;;;;;;;9.98;5.60;;;;;;;;;;5015737;28;20205;-62
2023/10/10 14:12:52;;;;;;;11.45;6.00;;;;;;;;;;5020765;28;20205;-62
2023/10/10 14:15:22;;;;;;;9.57;6.13;;;;;;;;;;5022512;28;20259;-66
2023/10/10 14:17:49;;;;;;;7.43;4.90;;;;;;;;;;5023463;28;20235;-66
2023/10/10 14:20:24;;;;;;;14.85;6.05;;;;;;;;;;5026006;28;20283;-66
2023/10/10 14:22:51;;;;;;;16.02;5.63;;;;;;;;;;5016746;28;20200;-66
2023/10/10 14:25:18;;;;;;;9.90;5.68;;;;;;;;;;5022199;28;20204;-66
2023/10/10 14:27:46;;;;;;;10.88;5.53;;;;;;;;;;5028895;28;20204;-66
2023/10/10 14:30:23;;;;;;;11.23;5.75;;;;;;;;;;5029515;28;20204;-66
2023/10/10 14:32:55;;;;;;;11.15;5.93;;;;;;;;;;5023975;28;20219;-66
2023/10/10 14:35:23;;;;;;;13.55;5.50;;;;;;;;;;5023449;28;20282;-66
2023/10/10 14:37:55;;;;;;;7.63;5.75;;;;;;;;;;5019674;28;20266;-66
2023/10/10 14:40:23;;;;;;;6.85;5.40;;;;;;;;;;5022018;28;20295;-66
2023/10/10 14:42:52;;;;;;;7.55;4.85;;;;;;;;;;5028618;28;20212;-66
2023/10/10 14:45:24;;;;;;;9.07;5.20;;;;;;;;;;5017737;28;20204;-66
2023/10/10 14:47:51;;;;;;;9.38;5.32;;;;;;;;;;5024649;28;20201;-66
2023/10/10 14:50:23;;;;;;;8.57;5.85;;;;;;;;;;5028583;28;20232;-66
2023/10/10 14:52:50;;;;;;;10.38;5.13;;;;;;;;;;5021403;28;20211;-66
2023/10/10 14:55:25;;;;;;;9.98;5.45;;;;;;;;;;5023255;28;20224;-66
2023/10/10 14:57:54;;;;;;;7.32;5.38;;;;;;;;;;5023355;28;20255;-66
2023/10/10 15:00:25;;;;;;;8.48;5.25;;;;;;;;;;5029046;28;20220;-66
2023/10/10 15:02:53;;;;;;;9.55;5.40;;;;;;;;;;5021222;28;20200;-66
2023/10/10 15:05:21;;;;;;;10.18;6.05;;;;;;;;;;5022164;28;20199;-66
2023/10/10 15:07:49;;;;;;;11.75;6.03;;;;;;;;;;5018242;28;20196;-66
2023/10/10 15:10:16;;;;;;;9.10;5.40;;;;;;;;;;5021245;28;20207;-66
2023/10/10 15:12:43;;;;;;;9.20;5.25;;;;;;;;;;5019085;28;20204;-66
2023/10/10 15:15:11;;;;;;;11.82;5.45;;;;;;;;;;5015890;28;20259;-66
2023/10/10 15:17:39;;;;;;;8.23;5.25;;;;;;;;;;5031017;28;20212;-66
2023/10/10 15:20:11;;;;;;;9.27;5.57;;;;;;;;;;5020179;28;20318;-66
2023/10/10 15:22:41;;;;;;;7.82;5.43;;;;;;;;;;5016934;28;20215;-66
2023/10/10 15:25:10;;;;;;;8.95;5.15;;;;;;;;;;5021023;28;20500;-64
2023/10/10 15:27:40;;;;;;;7.00;5.00;;;;;;;;;;5023642;28;20275;-62
2023/10/10 15:30:09;;;;;;;9.52;5.55;;;;;;;;;;5019942;28;20208;-63
2023/10/10 15:32:46;;;;;;;10.45;5.50;;;;;;;;;;5015609;28;20236;-62
2023/10/10 15:35:16;;;;;;;9.25;5.65;;;;;;;;;;5021854;28;20204;-63
2023/10/10 15:37:44;;;;;;;9.25;5.03;;;;;;;;;;5019615;28;20228;-62
2023/10/10 15:40:21;;;;;;;9.40;4.97;;;;;;;;;;5023178;28;20202;-63
2023/10/10 15:42:48;;;;;;;8.70;5.18;;;;;;;;;;5022826;28;20235;-64
2023/10/10 15:45:20;;;;;;;5.90;4.80;;;;;;;;;;5020717;28;20200;-63
2023/10/10 15:47:48;;;;;;;10.50;5.30;;;;;;;;;;5020391;28;20196;-63
2023/10/10 15:50:17;;;;;;;8.48;5.20;;;;;;;;;;5019369;28;20235;-63
2023/10/10 15:52:48;;;;;;;8.45;5.15;;;;;;;;;;5014946;28;20201;-63
2023/10/10 15:55:19;;;;;;;11.90;5.38;;;;;;;;;;5014732;28;20283;-62
2023/10/10 15:57:47;;;;;;;7.95;4.93;;;;;;;;;;5008923;28;20219;-63
2023/10/10 16:00:15;;;;;;;17.95;5.20;;;;;;;;;;5014843;28;20209;-63
2023/10/10 16:02:42;;;;;;;15.13;5.53;;;;;;;;;;5013530;28;20205;-63
2023/10/10 16:05:15;;;;;;;18.60;5.38;;;;;;;;;;5017569;28;20203;-63
2023/10/10 16:07:46;;;;;;;15.48;5.00;;;;;;;;;;5026083;28;20201;-63
2023/10/10 16:10:13;;;;;;;17.08;6.03;;;;;;;;;;5019787;28;20287;-63
2023/10/10 16:12:42;;;;;;;10.88;5.50;;;;;;;;;;5013562;28;20213;-63
2023/10/10 16:15:10;;;;;;;15.52;5.22;;;;;;;;;;5017051;28;20204;-63
2023/10/10 16:17:37;;;;;;;13.73;5.22;;;;;;;;;;5018001;28;20219;-63
2023/10/10 16:20:06;;;;;;;9.05;5.32;;;;;;;;;;5017927;28;20229;-63
2023/10/10 16:22:35;;;;;;;7.90;4.90;;;;;;;;;;5017963;28;20208;-63
2023/10/10 16:25:04;;;;;;;10.15;5.18;;;;;;;;;;5015904;28;20295;-63
2023/10/10 16:27:32;;;;;;;9.57;4.88;;;;;;;;;;5019021;28;20300;-63
2023/10/10 16:30:00;;;;;;;10.32;5.43;;;;;;;;;;5013671;28;20223;-63
2023/10/10 16:32:27;;;;;;;7.68;5.35;;;;;;;;;;5013149;28;20228;-64
2023/10/10 16:34:54;;;;;;;11.85;5.97;;;;;;;;;;5016060;28;20204;-63
2023/10/10 16:37:24;;;;;;;11.00;4.97;;;;;;;;;;5015675;28;20217;-63
2023/10/10 16:39:52;;;;;;;13.52;5.18;;;;;;;;;;5020773;28;20210;-62
2023/10/10 16:42:23;;;;;;;12.10;5.15;;;;;;;;;;5016511;28;20212;-64
2023/10/10 16:44:53;;;;;;;10.68;5.20;;;;;;;;;;5018218;28;20213;-64
2023/10/10 16:47:21;;;;;;;8.32;5.10;;;;;;;;;;5020863;28;20204;-63
2023/10/10 16:49:49;;;;;;;9.07;5.18;;;;;;;;;;5020248;28;20259;-63
2023/10/10 16:52:17;;;;;;;11.30;4.82;;;;;;;;;;5020836;28;20196;-63
2023/10/10 16:54:50;;;;;;;8.20;5.10;;;;;;;;;;5020377;28;20203;-63
2023/10/10 16:57:17;;;;;;;12.18;5.40;;;;;;;;;;5017972;28;20249;-63
2023/10/10 16:59:46;;;;;;;8.70;4.85;;;;;;;;;;5019497;28;20207;-63
2023/10/10 17:02:14;;;;;;;14.70;5.00;;;;;;;;;;5016873;28;20207;-63
2023/10/10 17:04:43;;;;;;;12.15;5.07;;;;;;;;;;5017227;28;20271;-63